sensor_id;sensor_type;location;lat;lon;timestamp;temperature;humidity
26107;DHT22;13866;50.748;12.630;2023-07-09T00:01:38;17.70;98.70
26107;DHT22;13866;50.748;12.630;2023-07-09T00:04:03;17.80;97.00
26107;DHT22;13866;50.748;12.630;2023-07-09T00:06:29;17.70;97.00
26107;DHT22;13866;50.748;12.630;2023-07-09T00:08:55;17.60;97.20
26107;DHT22;13866;50.748;12.630;2023-07-09T00:11:20;17.70;96.20
26107;DHT22;13866;50.748;12.630;2023-07-09T00:13:46;17.80;95.10
26107;DHT22;13866;50.748;12.630;2023-07-09T00:16:24;17.80;95.40
26107;DHT22;13866;50.748;12.630;2023-07-09T00:18:50;17.70;96.20
26107;DHT22;13866;50.748;12.630;2023-07-09T00:21:18;17.70;94.60
26107;DHT22;13866;50.748;12.630;2023-07-09T00:23:45;17.70;95.50
26107;DHT22;13866;50.748;12.630;2023-07-09T00:26:15;17.60;95.20
26107;DHT22;13866;50.748;12.630;2023-07-09T00:28:41;17.60;95.10
26107;DHT22;13866;50.748;12.630;2023-07-09T00:31:16;17.50;94.20
26107;DHT22;13866;50.748;12.630;2023-07-09T00:33:42;17.40;96.00
26107;DHT22;13866;50.748;12.630;2023-07-09T00:36:18;17.30;96.10
26107;DHT22;13866;50.748;12.630;2023-07-09T00:38:45;17.20;96.50
26107;DHT22;13866;50.748;12.630;2023-07-09T00:41:17;17.20;96.30
26107;DHT22;13866;50.748;12.630;2023-07-09T00:43:45;17.10;96.70
26107;DHT22;13866;50.748;12.630;2023-07-09T00:48:55;17.20;97.90
26107;DHT22;13866;50.748;12.630;2023-07-09T00:51:23;17.10;98.60
26107;DHT22;13866;50.748;12.630;2023-07-09T00:53:53;17.00;99.70
26107;DHT22;13866;50.748;12.630;2023-07-09T00:56:29;17.00;99.90
26107;DHT22;13866;50.748;12.630;2023-07-09T00:59:00;17.10;98.40
26107;DHT22;13866;50.748;12.630;2023-07-09T01:01:30;16.90;99.50
26107;DHT22;13866;50.748;12.630;2023-07-09T01:03:57;16.90;98.90
26107;DHT22;13866;50.748;12.630;2023-07-09T01:06:30;16.70;99.90
26107;DHT22;13866;50.748;12.630;2023-07-09T01:08:58;16.70;99.90
26107;DHT22;13866;50.748;12.630;2023-07-09T01:11:24;16.60;99.90
26107;DHT22;13866;50.748;12.630;2023-07-09T01:13:54;16.70;99.90
26107;DHT22;13866;50.748;12.630;2023-07-09T01:16:21;16.80;99.90
26107;DHT22;13866;50.748;12.630;2023-07-09T01:18:50;16.80;99.30
26107;DHT22;13866;50.748;12.630;2023-07-09T01:21:15;16.70;99.30
26107;DHT22;13866;50.748;12.630;2023-07-09T01:23:42;16.50;99.90
26107;DHT22;13866;50.748;12.630;2023-07-09T01:26:12;16.60;99.90
26107;DHT22;13866;50.748;12.630;2023-07-09T01:28:38;16.60;99.90
26107;DHT22;13866;50.748;12.630;2023-07-09T01:31:07;16.70;99.90
26107;DHT22;13866;50.748;12.630;2023-07-09T01:33:33;16.70;99.90
26107;DHT22;13866;50.748;12.630;2023-07-09T01:35:58;16.80;99.60
26107;DHT22;13866;50.748;12.630;2023-07-09T01:38:26;16.80;99.50
26107;DHT22;13866;50.748;12.630;2023-07-09T01:40:56;16.80;98.10
26107;DHT22;13866;50.748;12.630;2023-07-09T01:43:22;16.70;99.30
26107;DHT22;13866;50.748;12.630;2023-07-09T01:45:47;16.70;99.90
26107;DHT22;13866;50.748;12.630;2023-07-09T01:48:16;16.60;99.90
26107;DHT22;13866;50.748;12.630;2023-07-09T01:50:42;16.70;97.90
26107;DHT22;13866;50.748;12.630;2023-07-09T01:53:10;16.80;95.40
26107;DHT22;13866;50.748;12.630;2023-07-09T01:55:36;16.90;94.20
26107;DHT22;13866;50.748;12.630;2023-07-09T01:58:02;16.90;94.60
26107;DHT22;13866;50.748;12.630;2023-07-09T02:00:33;16.80;96.60
26107;DHT22;13866;50.748;12.630;2023-07-09T02:03:00;16.80;95.00
26107;DHT22;13866;50.748;12.630;2023-07-09T02:05:28;16.80;94.50
26107;DHT22;13866;50.748;12.630;2023-07-09T02:07:54;16.70;95.70
26107;DHT22;13866;50.748;12.630;2023-07-09T02:10:20;16.60;97.10
26107;DHT22;13866;50.748;12.630;2023-07-09T02:12:46;16.60;96.90
26107;DHT22;13866;50.748;12.630;2023-07-09T02:15:12;16.60;97.80
26107;DHT22;13866;50.748;12.630;2023-07-09T02:17:38;16.60;96.70
26107;DHT22;13866;50.748;12.630;2023-07-09T02:20:04;16.60;97.30
26107;DHT22;13866;50.748;12.630;2023-07-09T02:22:32;16.70;98.00
26107;DHT22;13866;50.748;12.630;2023-07-09T02:24:58;16.70;97.10
26107;DHT22;13866;50.748;12.630;2023-07-09T02:27:23;16.60;95.60
26107;DHT22;13866;50.748;12.630;2023-07-09T02:29:49;16.60;96.60
26107;DHT22;13866;50.748;12.630;2023-07-09T02:32:22;16.50;98.30
26107;DHT22;13866;50.748;12.630;2023-07-09T02:34:48;16.50;99.50
26107;DHT22;13866;50.748;12.630;2023-07-09T02:37:15;16.40;99.90
26107;DHT22;13866;50.748;12.630;2023-07-09T02:39:42;16.30;99.90
26107;DHT22;13866;50.748;12.630;2023-07-09T02:42:11;16.30;99.90
26107;DHT22;13866;50.748;12.630;2023-07-09T02:44:39;16.30;99.70
26107;DHT22;13866;50.748;12.630;2023-07-09T02:47:05;16.20;99.90
26107;DHT22;13866;50.748;12.630;2023-07-09T02:49:31;16.20;99.90
26107;DHT22;13866;50.748;12.630;2023-07-09T02:51:56;16.20;99.90
26107;DHT22;13866;50.748;12.630;2023-07-09T02:54:22;16.10;99.90
26107;DHT22;13866;50.748;12.630;2023-07-09T02:56:47;16.00;99.90
26107;DHT22;13866;50.748;12.630;2023-07-09T02:59:12;15.90;99.90
26107;DHT22;13866;50.748;12.630;2023-07-09T03:01:39;15.90;99.90
26107;DHT22;13866;50.748;12.630;2023-07-09T03:04:04;15.70;99.90
26107;DHT22;13866;50.748;12.630;2023-07-09T03:06:31;15.60;99.90
26107;DHT22;13866;50.748;12.630;2023-07-09T03:09:00;15.60;99.90
26107;DHT22;13866;50.748;12.630;2023-07-09T03:11:28;15.60;99.90
26107;DHT22;13866;50.748;12.630;2023-07-09T03:13:54;15.60;99.90
26107;DHT22;13866;50.748;12.630;2023-07-09T03:16:19;15.50;99.90
26107;DHT22;13866;50.748;12.630;2023-07-09T03:18:45;15.50;99.90
26107;DHT22;13866;50.748;12.630;2023-07-09T03:21:11;15.50;99.90
26107;DHT22;13866;50.748;12.630;2023-07-09T03:23:36;15.50;99.90
26107;DHT22;13866;50.748;12.630;2023-07-09T03:26:02;15.50;99.90
26107;DHT22;13866;50.748;12.630;2023-07-09T03:28:30;15.60;99.90
26107;DHT22;13866;50.748;12.630;2023-07-09T03:30:55;15.50;99.90
26107;DHT22;13866;50.748;12.630;2023-07-09T03:33:21;15.40;99.90
26107;DHT22;13866;50.748;12.630;2023-07-09T03:35:47;15.40;99.90
26107;DHT22;13866;50.748;12.630;2023-07-09T03:38:13;15.50;99.90
26107;DHT22;13866;50.748;12.630;2023-07-09T03:40:39;15.60;99.90
26107;DHT22;13866;50.748;12.630;2023-07-09T03:43:05;15.80;99.90
26107;DHT22;13866;50.748;12.630;2023-07-09T03:45:31;15.80;99.90
26107;DHT22;13866;50.748;12.630;2023-07-09T03:47:57;15.90;99.90
26107;DHT22;13866;50.748;12.630;2023-07-09T03:50:22;16.20;99.90
26107;DHT22;13866;50.748;12.630;2023-07-09T03:52:48;16.40;99.90
26107;DHT22;13866;50.748;12.630;2023-07-09T03:55:14;16.60;99.90
26107;DHT22;13866;50.748;12.630;2023-07-09T03:57:40;16.80;99.90
26107;DHT22;13866;50.748;12.630;2023-07-09T04:00:06;16.80;99.90
26107;DHT22;13866;50.748;12.630;2023-07-09T04:02:36;16.90;99.90
26107;DHT22;13866;50.748;12.630;2023-07-09T04:05:02;16.80;99.90
26107;DHT22;13866;50.748;12.630;2023-07-09T04:07:28;16.80;99.90
26107;DHT22;13866;50.748;12.630;2023-07-09T04:09:53;17.00;99.90
26107;DHT22;13866;50.748;12.630;2023-07-09T04:12:19;17.30;99.90
26107;DHT22;13866;50.748;12.630;2023-07-09T04:14:44;17.50;99.90
26107;DHT22;13866;50.748;12.630;2023-07-09T04:17:10;17.80;99.90
26107;DHT22;13866;50.748;12.630;2023-07-09T04:19:36;18.00;96.50
26107;DHT22;13866;50.748;12.630;2023-07-09T04:22:01;18.20;95.00
26107;DHT22;13866;50.748;12.630;2023-07-09T04:24:27;18.30;95.70
26107;DHT22;13866;50.748;12.630;2023-07-09T04:26:52;18.50;95.60
26107;DHT22;13866;50.748;12.630;2023-07-09T04:29:22;18.90;95.40
26107;DHT22;13866;50.748;12.630;2023-07-09T04:31:47;19.20;94.90
26107;DHT22;13866;50.748;12.630;2023-07-09T04:34:12;19.30;94.60
26107;DHT22;13866;50.748;12.630;2023-07-09T04:36:38;19.10;95.30
26107;DHT22;13866;50.748;12.630;2023-07-09T04:39:03;19.10;95.70
26107;DHT22;13866;50.748;12.630;2023-07-09T04:41:29;19.00;95.60
26107;DHT22;13866;50.748;12.630;2023-07-09T04:43:55;19.30;95.20
26107;DHT22;13866;50.748;12.630;2023-07-09T04:46:20;19.60;94.60
26107;DHT22;13866;50.748;12.630;2023-07-09T04:48:46;19.90;94.40
26107;DHT22;13866;50.748;12.630;2023-07-09T04:51:11;20.10;99.50
26107;DHT22;13866;50.748;12.630;2023-07-09T04:53:37;20.20;98.00
26107;DHT22;13866;50.748;12.630;2023-07-09T04:56:02;20.10;95.50
26107;DHT22;13866;50.748;12.630;2023-07-09T04:58:29;20.00;94.50
26107;DHT22;13866;50.748;12.630;2023-07-09T05:00:58;19.90;93.70
26107;DHT22;13866;50.748;12.630;2023-07-09T05:03:24;19.90;92.80
26107;DHT22;13866;50.748;12.630;2023-07-09T05:05:49;19.90;93.30
26107;DHT22;13866;50.748;12.630;2023-07-09T05:08:15;19.90;93.80
26107;DHT22;13866;50.748;12.630;2023-07-09T05:10:48;19.90;94.70
26107;DHT22;13866;50.748;12.630;2023-07-09T05:13:15;20.10;95.30
26107;DHT22;13866;50.748;12.630;2023-07-09T05:15:42;20.10;94.20
26107;DHT22;13866;50.748;12.630;2023-07-09T05:18:08;20.20;93.70
26107;DHT22;13866;50.748;12.630;2023-07-09T05:20:34;20.50;92.00
26107;DHT22;13866;50.748;12.630;2023-07-09T05:23:00;20.70;90.50
26107;DHT22;13866;50.748;12.630;2023-07-09T05:25:25;20.90;90.10
26107;DHT22;13866;50.748;12.630;2023-07-09T05:27:51;21.10;90.20
26107;DHT22;13866;50.748;12.630;2023-07-09T05:30:17;21.40;90.20
26107;DHT22;13866;50.748;12.630;2023-07-09T05:32:42;21.50;89.30
26107;DHT22;13866;50.748;12.630;2023-07-09T05:35:08;21.80;90.10
26107;DHT22;13866;50.748;12.630;2023-07-09T05:37:35;22.10;86.10
26107;DHT22;13866;50.748;12.630;2023-07-09T05:40:01;22.40;90.20
26107;DHT22;13866;50.748;12.630;2023-07-09T05:42:26;22.60;88.50
26107;DHT22;13866;50.748;12.630;2023-07-09T05:44:51;22.80;89.40
26107;DHT22;13866;50.748;12.630;2023-07-09T05:47:17;23.00;85.10
26107;DHT22;13866;50.748;12.630;2023-07-09T05:49:43;23.20;86.60
26107;DHT22;13866;50.748;12.630;2023-07-09T05:52:08;23.30;87.90
26107;DHT22;13866;50.748;12.630;2023-07-09T05:54:34;23.60;83.30
26107;DHT22;13866;50.748;12.630;2023-07-09T05:56:59;23.50;81.00
26107;DHT22;13866;50.748;12.630;2023-07-09T05:59:25;23.80;78.70
26107;DHT22;13866;50.748;12.630;2023-07-09T06:01:50;24.10;75.50
26107;DHT22;13866;50.748;12.630;2023-07-09T06:04:16;24.30;77.90
26107;DHT22;13866;50.748;12.630;2023-07-09T06:06:41;24.50;74.50
26107;DHT22;13866;50.748;12.630;2023-07-09T06:09:08;24.70;70.90
26107;DHT22;13866;50.748;12.630;2023-07-09T06:11:34;24.90;69.00
26107;DHT22;13866;50.748;12.630;2023-07-09T06:14:00;25.10;65.20
26107;DHT22;13866;50.748;12.630;2023-07-09T06:16:27;25.40;68.10
26107;DHT22;13866;50.748;12.630;2023-07-09T06:18:52;25.50;64.20
26107;DHT22;13866;50.748;12.630;2023-07-09T06:21:18;25.70;60.60
26107;DHT22;13866;50.748;12.630;2023-07-09T06:23:45;25.90;62.20
26107;DHT22;13866;50.748;12.630;2023-07-09T06:26:11;26.10;61.30
26107;DHT22;13866;50.748;12.630;2023-07-09T06:28:36;26.30;57.90
26107;DHT22;13866;50.748;12.630;2023-07-09T06:31:02;26.50;56.80
26107;DHT22;13866;50.748;12.630;2023-07-09T06:33:28;26.60;56.10
26107;DHT22;13866;50.748;12.630;2023-07-09T06:35:57;26.80;56.40
26107;DHT22;13866;50.748;12.630;2023-07-09T06:38:23;26.80;55.00
26107;DHT22;13866;50.748;12.630;2023-07-09T06:40:48;27.10;54.20
26107;DHT22;13866;50.748;12.630;2023-07-09T06:43:14;27.00;54.40
26107;DHT22;13866;50.748;12.630;2023-07-09T06:45:52;27.40;57.10
26107;DHT22;13866;50.748;12.630;2023-07-09T06:48:18;27.80;54.00
26107;DHT22;13866;50.748;12.630;2023-07-09T06:50:44;28.00;52.20
26107;DHT22;13866;50.748;12.630;2023-07-09T06:53:10;28.30;48.10
26107;DHT22;13866;50.748;12.630;2023-07-09T06:55:35;28.50;40.40
26107;DHT22;13866;50.748;12.630;2023-07-09T06:58:00;28.70;34.30
26107;DHT22;13866;50.748;12.630;2023-07-09T07:00:26;28.90;32.80
26107;DHT22;13866;50.748;12.630;2023-07-09T07:02:51;29.00;29.50
26107;DHT22;13866;50.748;12.630;2023-07-09T07:05:17;29.10;26.80
26107;DHT22;13866;50.748;12.630;2023-07-09T07:07:43;29.40;26.30
26107;DHT22;13866;50.748;12.630;2023-07-09T07:10:09;29.50;26.50
26107;DHT22;13866;50.748;12.630;2023-07-09T07:12:46;29.80;26.30
26107;DHT22;13866;50.748;12.630;2023-07-09T07:15:14;30.10;24.60
26107;DHT22;13866;50.748;12.630;2023-07-09T07:17:40;30.20;22.80
26107;DHT22;13866;50.748;12.630;2023-07-09T07:20:07;30.40;23.20
26107;DHT22;13866;50.748;12.630;2023-07-09T07:22:32;30.50;19.10
26107;DHT22;13866;50.748;12.630;2023-07-09T07:24:58;30.60;18.50
26107;DHT22;13866;50.748;12.630;2023-07-09T07:27:23;30.80;17.80
26107;DHT22;13866;50.748;12.630;2023-07-09T07:29:49;30.70;13.50
26107;DHT22;13866;50.748;12.630;2023-07-09T07:32:14;30.80;14.80
26107;DHT22;13866;50.748;12.630;2023-07-09T07:34:40;31.00;14.90
26107;DHT22;13866;50.748;12.630;2023-07-09T07:37:05;31.00;12.70
26107;DHT22;13866;50.748;12.630;2023-07-09T07:39:31;31.30;11.10
26107;DHT22;13866;50.748;12.630;2023-07-09T07:41:56;31.40;9.90
26107;DHT22;13866;50.748;12.630;2023-07-09T07:44:22;31.50;7.40
26107;DHT22;13866;50.748;12.630;2023-07-09T07:46:48;31.50;9.80
26107;DHT22;13866;50.748;12.630;2023-07-09T07:49:13;31.60;8.20
26107;DHT22;13866;50.748;12.630;2023-07-09T07:51:39;31.60;6.90
26107;DHT22;13866;50.748;12.630;2023-07-09T07:54:05;31.70;7.60
26107;DHT22;13866;50.748;12.630;2023-07-09T07:56:31;31.80;7.00
26107;DHT22;13866;50.748;12.630;2023-07-09T07:58:57;31.90;6.60
26107;DHT22;13866;50.748;12.630;2023-07-09T08:01:23;32.10;5.50
26107;DHT22;13866;50.748;12.630;2023-07-09T08:03:48;32.00;5.90
26107;DHT22;13866;50.748;12.630;2023-07-09T08:06:14;31.60;1.80
26107;DHT22;13866;50.748;12.630;2023-07-09T08:08:39;31.60;1.40
26107;DHT22;13866;50.748;12.630;2023-07-09T08:11:06;31.60;2.20
26107;DHT22;13866;50.748;12.630;2023-07-09T08:13:33;31.60;1.60
26107;DHT22;13866;50.748;12.630;2023-07-09T08:15:59;31.50;1.00
26107;DHT22;13866;50.748;12.630;2023-07-09T08:18:25;31.50;1.00
26107;DHT22;13866;50.748;12.630;2023-07-09T08:20:50;31.50;1.00
26107;DHT22;13866;50.748;12.630;2023-07-09T08:23:16;31.90;1.00
26107;DHT22;13866;50.748;12.630;2023-07-09T08:25:41;32.00;1.00
26107;DHT22;13866;50.748;12.630;2023-07-09T08:28:06;32.40;1.00
26107;DHT22;13866;50.748;12.630;2023-07-09T08:30:32;32.80;1.00
26107;DHT22;13866;50.748;12.630;2023-07-09T08:32:57;33.00;1.00
26107;DHT22;13866;50.748;12.630;2023-07-09T08:35:23;33.10;1.00
26107;DHT22;13866;50.748;12.630;2023-07-09T08:37:49;33.10;2.10
26107;DHT22;13866;50.748;12.630;2023-07-09T08:40:16;33.20;1.80
26107;DHT22;13866;50.748;12.630;2023-07-09T08:42:48;32.50;1.00
26107;DHT22;13866;50.748;12.630;2023-07-09T08:45:54;32.70;1.90
26107;DHT22;13866;50.748;12.630;2023-07-09T08:48:32;33.10;1.00
26107;DHT22;13866;50.748;12.630;2023-07-09T08:51:22;33.20;1.40
26107;DHT22;13866;50.748;12.630;2023-07-09T08:54:12;33.20;1.00
26107;DHT22;13866;50.748;12.630;2023-07-09T08:56:40;33.00;1.00
26107;DHT22;13866;50.748;12.630;2023-07-09T08:59:08;33.10;1.00
26107;DHT22;13866;50.748;12.630;2023-07-09T09:01:36;33.30;1.00
26107;DHT22;13866;50.748;12.630;2023-07-09T09:04:07;33.40;1.00
26107;DHT22;13866;50.748;12.630;2023-07-09T09:06:36;33.60;1.00
26107;DHT22;13866;50.748;12.630;2023-07-09T09:09:22;33.60;1.00
26107;DHT22;13866;50.748;12.630;2023-07-09T09:12:15;33.30;1.00
26107;DHT22;13866;50.748;12.630;2023-07-09T09:14:43;33.00;1.00
26107;DHT22;13866;50.748;12.630;2023-07-09T09:17:18;33.40;1.00
26107;DHT22;13866;50.748;12.630;2023-07-09T09:19:59;33.40;1.00
26107;DHT22;13866;50.748;12.630;2023-07-09T09:22:30;33.30;1.00
26107;DHT22;13866;50.748;12.630;2023-07-09T09:25:05;33.90;1.00
26107;DHT22;13866;50.748;12.630;2023-07-09T09:27:37;33.70;1.00
26107;DHT22;13866;50.748;12.630;2023-07-09T09:30:04;32.90;1.00
26107;DHT22;13866;50.748;12.630;2023-07-09T09:32:43;33.10;1.00
26107;DHT22;13866;50.748;12.630;2023-07-09T09:35:17;33.50;1.00
26107;DHT22;13866;50.748;12.630;2023-07-09T09:37:56;33.30;1.00
26107;DHT22;13866;50.748;12.630;2023-07-09T09:40:23;33.10;1.00
26107;DHT22;13866;50.748;12.630;2023-07-09T09:42:51;33.20;1.00
26107;DHT22;13866;50.748;12.630;2023-07-09T09:45:18;33.60;1.00
26107;DHT22;13866;50.748;12.630;2023-07-09T09:47:46;33.80;1.00
26107;DHT22;13866;50.748;12.630;2023-07-09T09:50:16;34.30;1.00
26107;DHT22;13866;50.748;12.630;2023-07-09T09:52:43;34.30;1.00
26107;DHT22;13866;50.748;12.630;2023-07-09T09:55:17;33.70;1.00
26107;DHT22;13866;50.748;12.630;2023-07-09T09:57:51;33.80;1.00
26107;DHT22;13866;50.748;12.630;2023-07-09T10:00:19;34.30;1.00
26107;DHT22;13866;50.748;12.630;2023-07-09T10:02:46;33.80;1.00
26107;DHT22;13866;50.748;12.630;2023-07-09T10:05:15;33.90;1.00
26107;DHT22;13866;50.748;12.630;2023-07-09T10:08:08;34.20;1.00
26107;DHT22;13866;50.748;12.630;2023-07-09T10:10:35;33.80;1.00
26107;DHT22;13866;50.748;12.630;2023-07-09T10:13:09;33.80;1.00
26107;DHT22;13866;50.748;12.630;2023-07-09T10:15:40;33.90;1.00
26107;DHT22;13866;50.748;12.630;2023-07-09T10:21:31;33.60;1.00
26107;DHT22;13866;50.748;12.630;2023-07-09T10:35:28;35.10;1.00
26107;DHT22;13866;50.748;12.630;2023-07-09T10:38:11;34.80;1.00
26107;DHT22;13866;50.748;12.630;2023-07-09T10:40:39;34.60;1.00
26107;DHT22;13866;50.748;12.630;2023-07-09T10:43:13;34.20;1.00
26107;DHT22;13866;50.748;12.630;2023-07-09T10:45:45;33.70;1.00
26107;DHT22;13866;50.748;12.630;2023-07-09T10:48:26;33.80;1.00
26107;DHT22;13866;50.748;12.630;2023-07-09T10:50:56;34.10;1.00
26107;DHT22;13866;50.748;12.630;2023-07-09T10:53:31;33.80;1.00
26107;DHT22;13866;50.748;12.630;2023-07-09T10:56:14;34.00;1.00
26107;DHT22;13866;50.748;12.630;2023-07-09T10:58:53;34.50;1.00
26107;DHT22;13866;50.748;12.630;2023-07-09T11:01:29;34.70;1.00
26107;DHT22;13866;50.748;12.630;2023-07-09T11:04:00;33.80;1.00
26107;DHT22;13866;50.748;12.630;2023-07-09T11:06:38;34.30;1.00
26107;DHT22;13866;50.748;12.630;2023-07-09T11:09:24;34.60;1.00
26107;DHT22;13866;50.748;12.630;2023-07-09T11:11:54;34.90;1.00
26107;DHT22;13866;50.748;12.630;2023-07-09T11:14:39;34.70;1.00
26107;DHT22;13866;50.748;12.630;2023-07-09T11:17:15;34.50;1.00
26107;DHT22;13866;50.748;12.630;2023-07-09T11:19:42;34.60;1.00
26107;DHT22;13866;50.748;12.630;2023-07-09T11:22:25;34.60;1.00
26107;DHT22;13866;50.748;12.630;2023-07-09T11:25:06;34.60;1.00
26107;DHT22;13866;50.748;12.630;2023-07-09T11:27:32;34.60;1.00
26107;DHT22;13866;50.748;12.630;2023-07-09T11:30:00;34.50;1.00
26107;DHT22;13866;50.748;12.630;2023-07-09T11:32:27;34.80;1.00
26107;DHT22;13866;50.748;12.630;2023-07-09T11:34:53;34.70;1.00
26107;DHT22;13866;50.748;12.630;2023-07-09T11:37:25;35.00;1.00
26107;DHT22;13866;50.748;12.630;2023-07-09T11:39:51;35.20;1.00
26107;DHT22;13866;50.748;12.630;2023-07-09T11:42:32;35.10;1.00
26107;DHT22;13866;50.748;12.630;2023-07-09T11:45:08;35.20;1.00
26107;DHT22;13866;50.748;12.630;2023-07-09T11:47:40;35.20;1.00
26107;DHT22;13866;50.748;12.630;2023-07-09T11:50:24;34.90;1.00
26107;DHT22;13866;50.748;12.630;2023-07-09T11:58:03;35.10;1.00
26107;DHT22;13866;50.748;12.630;2023-07-09T12:00:39;35.30;1.00
26107;DHT22;13866;50.748;12.630;2023-07-09T12:03:06;35.30;1.00
26107;DHT22;13866;50.748;12.630;2023-07-09T12:05:32;35.30;1.00
26107;DHT22;13866;50.748;12.630;2023-07-09T12:07:59;35.40;1.00
26107;DHT22;13866;50.748;12.630;2023-07-09T12:10:33;35.90;1.00
26107;DHT22;13866;50.748;12.630;2023-07-09T12:12:59;35.80;1.00
26107;DHT22;13866;50.748;12.630;2023-07-09T12:15:28;35.80;1.00
26107;DHT22;13866;50.748;12.630;2023-07-09T12:20:24;35.80;1.00
26107;DHT22;13866;50.748;12.630;2023-07-09T12:22:50;35.60;1.00
26107;DHT22;13866;50.748;12.630;2023-07-09T12:25:25;35.80;1.00
26107;DHT22;13866;50.748;12.630;2023-07-09T12:27:52;35.90;1.00
26107;DHT22;13866;50.748;12.630;2023-07-09T12:30:18;35.50;1.00
26107;DHT22;13866;50.748;12.630;2023-07-09T12:32:44;35.40;1.00
26107;DHT22;13866;50.748;12.630;2023-07-09T12:35:13;35.40;1.00
26107;DHT22;13866;50.748;12.630;2023-07-09T12:37:39;35.10;1.00
26107;DHT22;13866;50.748;12.630;2023-07-09T12:40:16;35.10;1.00
26107;DHT22;13866;50.748;12.630;2023-07-09T12:42:42;34.80;1.00
26107;DHT22;13866;50.748;12.630;2023-07-09T12:45:17;35.00;1.00
26107;DHT22;13866;50.748;12.630;2023-07-09T12:47:45;35.10;1.00
26107;DHT22;13866;50.748;12.630;2023-07-09T12:50:32;35.00;1.00
26107;DHT22;13866;50.748;12.630;2023-07-09T12:53:17;34.80;1.00
26107;DHT22;13866;50.748;12.630;2023-07-09T12:55:45;34.80;1.00
26107;DHT22;13866;50.748;12.630;2023-07-09T12:58:22;34.90;1.00
26107;DHT22;13866;50.748;12.630;2023-07-09T13:00:50;34.50;1.00
26107;DHT22;13866;50.748;12.630;2023-07-09T13:03:19;34.50;1.00
26107;DHT22;13866;50.748;12.630;2023-07-09T13:06:01;34.50;1.00
26107;DHT22;13866;50.748;12.630;2023-07-09T13:08:31;34.70;1.00
26107;DHT22;13866;50.748;12.630;2023-07-09T13:10:57;34.60;1.00
26107;DHT22;13866;50.748;12.630;2023-07-09T13:13:24;35.10;1.00
26107;DHT22;13866;50.748;12.630;2023-07-09T13:15:56;35.40;1.00
26107;DHT22;13866;50.748;12.630;2023-07-09T13:18:23;35.50;1.00
26107;DHT22;13866;50.748;12.630;2023-07-09T13:20:50;35.40;1.00
26107;DHT22;13866;50.748;12.630;2023-07-09T13:23:21;35.30;1.00
26107;DHT22;13866;50.748;12.630;2023-07-09T13:25:47;34.80;1.00
26107;DHT22;13866;50.748;12.630;2023-07-09T13:28:27;34.70;1.00
26107;DHT22;13866;50.748;12.630;2023-07-09T13:30:57;34.80;1.00
26107;DHT22;13866;50.748;12.630;2023-07-09T13:33:23;34.60;1.00
26107;DHT22;13866;50.748;12.630;2023-07-09T13:35:49;34.70;1.00
26107;DHT22;13866;50.748;12.630;2023-07-09T13:38:19;34.90;1.00
26107;DHT22;13866;50.748;12.630;2023-07-09T13:40:48;35.10;1.00
26107;DHT22;13866;50.748;12.630;2023-07-09T13:43:32;35.50;1.00
26107;DHT22;13866;50.748;12.630;2023-07-09T13:45:59;35.60;1.00
26107;DHT22;13866;50.748;12.630;2023-07-09T13:48:26;35.70;1.00
26107;DHT22;13866;50.748;12.630;2023-07-09T13:50:53;35.80;1.00
26107;DHT22;13866;50.748;12.630;2023-07-09T13:53:22;35.90;1.00
26107;DHT22;13866;50.748;12.630;2023-07-09T13:55:48;35.50;1.00
26107;DHT22;13866;50.748;12.630;2023-07-09T13:58:18;35.60;1.00
26107;DHT22;13866;50.748;12.630;2023-07-09T14:00:45;35.10;1.00
26107;DHT22;13866;50.748;12.630;2023-07-09T14:03:17;35.30;1.00
26107;DHT22;13866;50.748;12.630;2023-07-09T14:05:44;35.10;1.00
26107;DHT22;13866;50.748;12.630;2023-07-09T14:08:11;35.00;1.00
26107;DHT22;13866;50.748;12.630;2023-07-09T14:10:36;34.70;1.00
26107;DHT22;13866;50.748;12.630;2023-07-09T14:13:03;34.90;1.00
26107;DHT22;13866;50.748;12.630;2023-07-09T14:15:28;34.90;1.00
26107;DHT22;13866;50.748;12.630;2023-07-09T14:17:54;34.70;1.00
26107;DHT22;13866;50.748;12.630;2023-07-09T14:20:21;34.60;1.00
26107;DHT22;13866;50.748;12.630;2023-07-09T14:22:47;34.40;1.00
26107;DHT22;13866;50.748;12.630;2023-07-09T14:25:22;34.20;1.00
26107;DHT22;13866;50.748;12.630;2023-07-09T14:27:50;34.20;1.00
26107;DHT22;13866;50.748;12.630;2023-07-09T14:30:17;34.40;1.00
26107;DHT22;13866;50.748;12.630;2023-07-09T14:32:45;34.30;1.00
26107;DHT22;13866;50.748;12.630;2023-07-09T14:35:20;34.40;1.00
26107;DHT22;13866;50.748;12.630;2023-07-09T14:37:49;34.50;1.00
26107;DHT22;13866;50.748;12.630;2023-07-09T14:40:18;34.60;1.00
26107;DHT22;13866;50.748;12.630;2023-07-09T14:42:46;34.70;1.00
26107;DHT22;13866;50.748;12.630;2023-07-09T14:45:20;34.80;1.00
26107;DHT22;13866;50.748;12.630;2023-07-09T14:47:48;34.70;1.00
26107;DHT22;13866;50.748;12.630;2023-07-09T14:50:14;34.80;1.00
26107;DHT22;13866;50.748;12.630;2023-07-09T14:52:41;34.70;1.00
26107;DHT22;13866;50.748;12.630;2023-07-09T14:55:16;34.70;1.00
26107;DHT22;13866;50.748;12.630;2023-07-09T14:57:43;34.50;1.00
26107;DHT22;13866;50.748;12.630;2023-07-09T15:00:16;34.10;1.00
26107;DHT22;13866;50.748;12.630;2023-07-09T15:02:44;33.90;1.00
26107;DHT22;13866;50.748;12.630;2023-07-09T15:05:16;33.90;1.00
26107;DHT22;13866;50.748;12.630;2023-07-09T15:07:42;34.00;1.00
26107;DHT22;13866;50.748;12.630;2023-07-09T15:10:12;34.10;1.00
26107;DHT22;13866;50.748;12.630;2023-07-09T15:12:38;33.90;1.00
26107;DHT22;13866;50.748;12.630;2023-07-09T15:15:28;33.90;1.00
26107;DHT22;13866;50.748;12.630;2023-07-09T15:17:56;34.10;1.00
26107;DHT22;13866;50.748;12.630;2023-07-09T15:20:23;34.20;1.00
26107;DHT22;13866;50.748;12.630;2023-07-09T15:22:50;34.30;1.00
26107;DHT22;13866;50.748;12.630;2023-07-09T15:25:23;33.90;1.00
26107;DHT22;13866;50.748;12.630;2023-07-09T15:27:49;34.10;1.00
26107;DHT22;13866;50.748;12.630;2023-07-09T15:30:24;34.20;1.00
26107;DHT22;13866;50.748;12.630;2023-07-09T15:32:50;34.30;1.00
26107;DHT22;13866;50.748;12.630;2023-07-09T15:35:17;34.00;1.00
26107;DHT22;13866;50.748;12.630;2023-07-09T15:37:44;34.00;1.00
26107;DHT22;13866;50.748;12.630;2023-07-09T15:40:22;34.10;1.00
26107;DHT22;13866;50.748;12.630;2023-07-09T15:42:51;34.00;1.00
26107;DHT22;13866;50.748;12.630;2023-07-09T15:45:18;34.20;1.00
26107;DHT22;13866;50.748;12.630;2023-07-09T15:47:45;34.10;1.00
26107;DHT22;13866;50.748;12.630;2023-07-09T15:52:45;33.70;1.00
26107;DHT22;13866;50.748;12.630;2023-07-09T15:55:17;33.70;1.00
26107;DHT22;13866;50.748;12.630;2023-07-09T15:57:45;33.70;1.00
26107;DHT22;13866;50.748;12.630;2023-07-09T16:02:45;33.50;1.00